createdAt,value
2018-05-29T00:02:07.667Z,58.88
2018-05-29T00:04:37.335Z,59.01
2018-05-29T00:07:06.958Z,59.37
2018-05-29T00:09:36.599Z,59.54
2018-05-29T00:12:06.217Z,59.95
2018-05-29T00:14:35.848Z,60.01
2018-05-29T00:17:05.174Z,59.90
2018-05-29T00:19:34.818Z,60.07
2018-05-29T00:22:04.487Z,60.18
2018-05-29T00:24:34.124Z,60.29
2018-05-29T00:27:03.753Z,60.35
2018-05-29T00:29:33.433Z,60.41
2018-05-29T00:32:03.079Z,60.37
2018-05-29T00:34:32.718Z,60.51
2018-05-29T00:37:02.462Z,60.60
2018-05-29T00:39:32.105Z,60.63
2018-05-29T00:42:01.784Z,60.56
2018-05-29T00:44:31.420Z,60.77
2018-05-29T00:47:01.053Z,60.65
2018-05-29T00:49:30.417Z,60.66
2018-05-29T00:52:00.060Z,60.98
2018-05-29T00:54:29.748Z,60.89
2018-05-29T00:56:59.409Z,60.98
2018-05-29T00:59:29.065Z,61.14
2018-05-29T01:01:58.695Z,61.18
2018-05-29T01:04:28.345Z,61.35
2018-05-29T01:06:58.040Z,61.50
2018-05-29T01:09:27.706Z,61.71
2018-05-29T01:11:57.344Z,61.77
2018-05-29T01:14:26.717Z,61.82
2018-05-29T01:16:56.334Z,61.97
2018-05-29T01:19:25.726Z,62.04
2018-05-29T01:21:55.351Z,62.11
2018-05-29T01:24:24.983Z,62.29
2018-05-29T01:26:54.622Z,62.25
2018-05-29T01:29:24.268Z,62.50
2018-05-29T01:31:53.951Z,62.59
2018-05-29T01:34:23.582Z,62.68
2018-05-29T01:36:52.599Z,62.83
2018-05-29T01:39:22.252Z,63.08
2018-05-29T01:41:51.900Z,63.21
2018-05-29T01:44:21.291Z,62.99
2018-05-29T01:46:50.916Z,63.13
2018-05-29T01:49:20.567Z,63.12
2018-05-29T01:51:49.931Z,63.35
2018-05-29T01:54:19.608Z,63.53
2018-05-29T01:56:49.250Z,63.83
2018-05-29T01:59:18.946Z,63.93
2018-05-29T02:01:50.543Z,64.08
2018-05-29T02:04:20.209Z,64.13
2018-05-29T02:06:50.010Z,64.03
2018-05-29T02:09:19.644Z,63.99
2018-05-29T02:11:49.304Z,63.90
2018-05-29T02:14:18.972Z,63.77
2018-05-29T02:16:48.609Z,63.83
2018-05-29T02:19:18.229Z,63.94
2018-05-29T02:21:47.896Z,63.89
2018-05-29T02:24:17.547Z,63.77
2018-05-29T02:26:47.258Z,63.92
2018-05-29T02:29:16.880Z,63.92
2018-05-29T02:31:46.534Z,63.65
2018-05-29T02:34:16.163Z,63.49
2018-05-29T02:36:45.800Z,63.45
2018-05-29T02:39:15.424Z,63.62
2018-05-29T02:41:45.064Z,63.75
2018-05-29T02:44:14.468Z,63.43
2018-05-29T02:46:44.132Z,63.25
2018-05-29T02:49:13.765Z,63.27
2018-05-29T02:51:43.409Z,63.18
2018-05-29T02:54:13.075Z,62.89
2018-05-29T02:56:42.765Z,62.68
2018-05-29T02:59:12.420Z,62.76
2018-05-29T03:01:42.038Z,62.64
2018-05-29T03:04:11.384Z,62.59
2018-05-29T03:06:41.016Z,62.46
2018-05-29T03:09:10.701Z,62.04
2018-05-29T03:11:40.084Z,61.95
2018-05-29T03:14:09.723Z,61.89
2018-05-29T03:16:39.357Z,61.58
2018-05-29T03:19:08.997Z,61.35
2018-05-29T03:21:38.408Z,61.10
2018-05-29T03:24:08.054Z,60.78
2018-05-29T03:26:37.709Z,60.25
2018-05-29T03:29:07.351Z,60.10
2018-05-29T03:31:36.967Z,59.86
2018-05-29T03:34:06.640Z,59.39
2018-05-29T03:36:36.267Z,59.37
2018-05-29T03:39:05.338Z,58.93
2018-05-29T03:41:34.978Z,58.47
2018-05-29T03:44:04.350Z,58.11
2018-05-29T03:46:33.766Z,58.34
2018-05-29T03:49:03.395Z,58.16
2018-05-29T03:51:33.031Z,58.21
2018-05-29T03:54:02.651Z,57.80
2018-05-29T03:56:32.282Z,57.56
2018-05-29T03:59:01.968Z,57.52
2018-05-29T04:01:31.634Z,57.08
2018-05-29T04:04:01.345Z,56.59
2018-05-29T04:06:30.755Z,56.35
2018-05-29T04:09:00.370Z,56.36
2018-05-29T04:11:29.783Z,55.95
2018-05-29T04:13:59.411Z,56.18
2018-05-29T04:16:29.071Z,56.18
2018-05-29T04:18:58.712Z,55.66
2018-05-29T04:21:28.326Z,55.59
2018-05-29T04:23:57.990Z,54.70
2018-05-29T04:26:27.624Z,54.50
2018-05-29T04:28:57.261Z,54.12
2018-05-29T04:31:26.906Z,52.52
2018-05-29T04:33:56.534Z,52.15
2018-05-29T04:36:26.211Z,51.90
2018-05-29T04:38:55.572Z,52.11
2018-05-29T04:41:25.192Z,51.87
2018-05-29T04:43:54.826Z,51.75
2018-05-29T04:46:24.460Z,50.71
2018-05-29T04:48:54.147Z,50.08
2018-05-29T04:51:23.802Z,47.72
2018-05-29T04:53:53.448Z,44.68
2018-05-29T04:56:23.092Z,42.32
2018-05-29T04:58:52.719Z,39.86
2018-05-29T05:01:22.399Z,38.50
2018-05-29T05:03:52.053Z,37.50
2018-05-29T05:06:21.682Z,35.88
2018-05-29T05:08:51.348Z,34.11
2018-05-29T05:11:21.570Z,32.26
2018-05-29T05:13:51.868Z,31.21
2018-05-29T05:16:22.093Z,29.50
2018-05-29T05:18:52.349Z,28.29
2018-05-29T05:21:22.298Z,26.45
2018-05-29T05:23:52.528Z,26.24
2018-05-29T05:26:22.738Z,25.42
2018-05-29T05:28:52.949Z,24.14
2018-05-29T05:31:23.190Z,23.67
2018-05-29T05:33:53.396Z,23.69
2018-05-29T05:36:23.619Z,24.04
2018-05-29T05:38:53.836Z,23.82
2018-05-29T05:41:24.036Z,24.95
2018-05-29T05:43:54.291Z,24.24
2018-05-29T05:46:24.600Z,22.37
2018-05-29T05:48:54.844Z,22.74
2018-05-29T05:51:25.056Z,23.30
2018-05-29T05:53:55.276Z,23.94
2018-05-29T05:56:25.527Z,23.16
2018-05-29T05:58:55.766Z,23.13
2018-05-29T06:01:26.093Z,22.22
2018-05-29T06:03:56.432Z,21.96
2018-05-29T06:06:26.823Z,21.85
2018-05-29T06:08:57.251Z,21.66
2018-05-29T06:11:27.596Z,19.93
2018-05-29T06:13:57.871Z,20.23
2018-05-29T06:16:28.070Z,19.18
2018-05-29T06:18:58.336Z,19.88
2018-05-29T06:21:28.586Z,19.32
2018-05-29T06:23:58.552Z,19.51
2018-05-29T06:26:28.811Z,18.87
2018-05-29T06:28:59.098Z,17.87
2018-05-29T06:31:29.554Z,18.32
2018-05-29T06:33:59.835Z,19.02
2018-05-29T06:36:30.079Z,20.04
2018-05-29T06:39:00.313Z,19.36
2018-05-29T06:41:30.564Z,19.39
2018-05-29T06:44:00.801Z,20.34
2018-05-29T06:46:30.505Z,20.05
2018-05-29T06:49:00.371Z,19.35
2018-05-29T06:51:30.626Z,18.89
2018-05-29T06:54:00.848Z,18.36
2018-05-29T06:56:31.091Z,18.45
2018-05-29T06:59:01.312Z,17.31
2018-05-29T07:01:31.537Z,16.18
2018-05-29T07:04:01.766Z,17.21
2018-05-29T07:06:32.187Z,17.73
2018-05-29T07:09:03.431Z,18.05
2018-05-29T07:11:33.375Z,18.68
2018-05-29T07:14:03.439Z,18.75
2018-05-29T07:16:33.661Z,17.69
2018-05-29T07:19:03.614Z,17.19
2018-05-29T07:21:33.601Z,16.64
2018-05-29T07:24:03.581Z,16.78
2018-05-29T07:26:33.681Z,16.51
2018-05-29T07:29:03.716Z,16.30
2018-05-29T07:31:33.695Z,15.90
2018-05-29T07:34:03.732Z,16.28
2018-05-29T07:36:33.635Z,16.53
2018-05-29T07:39:03.164Z,17.72
2018-05-29T07:41:33.120Z,17.50
2018-05-29T07:44:03.044Z,16.73
2018-05-29T07:46:33.021Z,16.78
2018-05-29T07:49:02.939Z,16.34
2018-05-29T07:51:32.905Z,17.32
2018-05-29T07:54:02.844Z,17.63
2018-05-29T07:56:32.801Z,17.27
2018-05-29T07:59:02.719Z,17.58
2018-05-29T08:01:33.065Z,16.92
2018-05-29T08:04:03.058Z,16.80
2018-05-29T08:06:33.176Z,15.70
2018-05-29T08:09:03.084Z,14.72
2018-05-29T08:11:32.747Z,15.35
2018-05-29T08:14:02.731Z,14.43
2018-05-29T08:16:32.501Z,14.87
2018-05-29T08:19:02.453Z,15.15
2018-05-29T08:21:32.401Z,15.15
2018-05-29T08:24:03.449Z,15.23
2018-05-29T08:26:33.624Z,15.38
2018-05-29T08:29:03.886Z,16.11
2018-05-29T08:31:34.512Z,16.08
2018-05-29T08:34:05.457Z,16.63
2018-05-29T08:36:35.448Z,16.84
2018-05-29T08:39:07.912Z,17.01
2018-05-29T08:41:37.844Z,17.02
2018-05-29T08:44:07.919Z,17.17
2018-05-29T08:46:37.612Z,17.15
2018-05-29T08:49:07.797Z,18.51
2018-05-29T08:51:38.524Z,18.09
2018-05-29T08:54:08.761Z,18.11
2018-05-29T08:56:39.090Z,18.25
2018-05-29T08:59:09.506Z,17.30
2018-05-29T09:01:40.304Z,16.98
2018-05-29T09:04:10.558Z,16.93
2018-05-29T09:06:41.218Z,16.71
2018-05-29T09:09:11.414Z,17.24
2018-05-29T09:11:41.675Z,17.68
2018-05-29T09:14:11.870Z,16.61
2018-05-29T09:16:42.129Z,16.84
2018-05-29T09:19:12.329Z,18.73
2018-05-29T09:21:42.571Z,20.31
2018-05-29T09:24:12.783Z,20.28
2018-05-29T09:26:42.751Z,20.55
2018-05-29T09:29:12.999Z,21.99
2018-05-29T09:31:43.209Z,22.30
2018-05-29T09:34:13.458Z,22.89
2018-05-29T09:36:43.669Z,24.23
2018-05-29T09:39:13.866Z,24.33
2018-05-29T09:41:44.114Z,24.33
2018-05-29T09:44:14.339Z,25.04
2018-05-29T09:46:44.278Z,25.66
2018-05-29T09:49:14.589Z,25.48
2018-05-29T09:51:44.795Z,26.23
2018-05-29T09:54:15.030Z,26.19
2018-05-29T09:56:45.252Z,26.27
2018-05-29T09:59:15.484Z,26.80
2018-05-29T10:01:45.674Z,27.48
2018-05-29T10:04:15.887Z,26.46
2018-05-29T10:06:46.152Z,27.24
2018-05-29T10:09:16.363Z,27.51
2018-05-29T10:11:46.368Z,26.68
2018-05-29T10:14:16.327Z,26.88
2018-05-29T10:16:46.265Z,27.62
2018-05-29T10:19:16.561Z,27.67
2018-05-29T10:21:46.825Z,28.27
2018-05-29T10:24:17.063Z,28.40
2018-05-29T10:26:47.288Z,28.41
2018-05-29T10:29:17.515Z,28.61
2018-05-29T10:31:47.718Z,28.46
2018-05-29T10:34:17.924Z,29.27
2018-05-29T10:36:48.171Z,29.57
2018-05-29T10:39:18.389Z,29.41
2018-05-29T10:41:48.637Z,29.49
2018-05-29T10:44:18.562Z,30.32
2018-05-29T10:46:48.771Z,30.79
2018-05-29T10:49:19.010Z,31.18
2018-05-29T10:51:49.208Z,31.81
2018-05-29T10:54:19.428Z,31.84
2018-05-29T10:56:49.362Z,31.80
2018-05-29T10:59:19.585Z,31.99
2018-05-29T11:01:49.860Z,32.59
2018-05-29T11:04:20.062Z,31.91
2018-05-29T11:06:50.336Z,32.11
2018-05-29T11:09:20.764Z,31.94
2018-05-29T11:11:51.010Z,32.33
2018-05-29T11:14:21.329Z,32.26
2018-05-29T11:16:51.724Z,32.49
2018-05-29T11:19:21.685Z,32.82
2018-05-29T11:21:51.640Z,32.72
2018-05-29T11:24:21.622Z,32.37
2018-05-29T11:26:51.826Z,32.70
2018-05-29T11:29:22.096Z,33.54
2018-05-29T11:31:52.028Z,34.53
2018-05-29T11:34:22.258Z,33.76
2018-05-29T11:36:52.471Z,33.95
2018-05-29T11:39:22.698Z,34.51
2018-05-29T11:41:52.716Z,35.66
2018-05-29T11:44:22.640Z,34.56
2018-05-29T11:46:52.897Z,33.61
2018-05-29T11:49:23.095Z,34.09
2018-05-29T11:51:53.357Z,35.25
2018-05-29T11:54:23.561Z,34.80
2018-05-29T11:56:53.559Z,35.55
2018-05-29T11:59:23.780Z,34.83
2018-05-29T12:01:54.010Z,35.27
2018-05-29T12:04:24.336Z,35.84
2018-05-29T12:06:54.696Z,36.28
2018-05-29T12:09:24.948Z,36.94
2018-05-29T12:12:24.851Z,36.30
2018-05-29T12:14:55.113Z,35.96
2018-05-29T12:17:25.317Z,36.79
2018-05-29T12:19:55.557Z,35.62
2018-05-29T12:22:25.792Z,36.66
2018-05-29T12:24:56.207Z,37.61
2018-05-29T12:27:26.470Z,36.17
2018-05-29T12:29:58.307Z,36.85
2018-05-29T12:32:28.565Z,36.93
2018-05-29T12:34:58.777Z,36.63
2018-05-29T12:37:29.033Z,36.20
2018-05-29T12:39:59.249Z,36.56
2018-05-29T12:42:29.487Z,36.65
2018-05-29T12:44:59.693Z,36.25
2018-05-29T12:47:29.976Z,36.35
2018-05-29T12:49:59.895Z,36.18
2018-05-29T12:52:30.139Z,36.26
2018-05-29T12:55:00.090Z,37.00
2018-05-29T12:57:30.057Z,36.64
2018-05-29T13:00:00.268Z,35.44
2018-05-29T13:02:30.295Z,36.38
2018-05-29T13:05:00.226Z,36.43
2018-05-29T13:07:30.177Z,35.89
2018-05-29T13:10:00.143Z,35.55
2018-05-29T13:12:30.089Z,35.96
2018-05-29T13:15:00.085Z,35.91
2018-05-29T13:17:30.508Z,35.60
2018-05-29T13:20:00.703Z,35.50
2018-05-29T13:22:31.014Z,36.34
2018-05-29T13:25:01.379Z,36.27
2018-05-29T13:27:31.621Z,35.28
2018-05-29T13:30:01.815Z,35.69
2018-05-29T13:32:31.793Z,35.46
2018-05-29T13:35:01.757Z,36.20
2018-05-29T13:37:31.987Z,35.97
2018-05-29T13:40:01.910Z,35.28
2018-05-29T13:42:31.865Z,35.43
2018-05-29T13:45:01.824Z,35.00
2018-05-29T13:47:32.034Z,34.84
2018-05-29T13:50:01.996Z,34.29
2018-05-29T13:52:31.915Z,35.22
2018-05-29T13:55:01.845Z,35.48
2018-05-29T13:57:32.108Z,33.87
2018-05-29T14:00:02.117Z,34.33
2018-05-29T14:02:32.342Z,33.46
2018-05-29T14:05:02.273Z,33.17
2018-05-29T14:07:32.280Z,33.86
2018-05-29T14:10:02.504Z,34.00
2018-05-29T14:12:32.450Z,33.01
2018-05-29T14:15:02.373Z,34.06
2018-05-29T14:17:32.593Z,34.05
2018-05-29T14:20:02.840Z,33.21
2018-05-29T14:22:32.787Z,32.69
2018-05-29T14:25:02.480Z,33.25
2018-05-29T14:27:32.418Z,33.60
2018-05-29T14:30:02.629Z,32.99
2018-05-29T14:32:32.629Z,32.79
2018-05-29T14:35:02.538Z,33.47
2018-05-29T14:37:32.490Z,33.67
2018-05-29T14:40:02.426Z,33.52
2018-05-29T14:42:32.355Z,32.63
2018-05-29T14:45:02.326Z,33.28
2018-05-29T14:47:32.241Z,33.31
2018-05-29T14:50:02.468Z,33.42
2018-05-29T14:52:32.388Z,32.65
2018-05-29T14:55:02.307Z,33.41
2018-05-29T14:57:32.284Z,33.02
2018-05-29T15:00:02.202Z,33.83
2018-05-29T15:02:32.166Z,33.65
2018-05-29T15:05:02.092Z,33.67
2018-05-29T15:07:32.006Z,33.81
2018-05-29T15:10:02.009Z,34.66
2018-05-29T15:12:31.972Z,34.89
2018-05-29T15:15:01.932Z,35.17
2018-05-29T15:17:31.871Z,34.97
2018-05-29T15:20:01.836Z,34.91
2018-05-29T15:22:31.754Z,34.42
2018-05-29T15:25:01.709Z,35.57
2018-05-29T15:27:31.706Z,35.49
2018-05-29T15:30:01.639Z,36.26
2018-05-29T15:32:31.578Z,36.94
2018-05-29T15:35:01.497Z,37.27
2018-05-29T15:37:31.438Z,36.99
2018-05-29T15:40:01.445Z,37.59
2018-05-29T15:42:31.367Z,38.61
2018-05-29T15:45:01.332Z,38.29
2018-05-29T15:47:31.268Z,39.11
2018-05-29T15:50:01.202Z,39.63
2018-05-29T15:52:31.150Z,40.96
2018-05-29T15:55:01.078Z,42.29
2018-05-29T15:57:31.021Z,43.01
2018-05-29T16:00:01.024Z,45.08
2018-05-29T16:02:31.106Z,47.77
2018-05-29T16:05:01.099Z,50.08
2018-05-29T16:07:31.041Z,54.71
2018-05-29T16:10:00.991Z,60.05
2018-05-29T16:12:30.347Z,71.31
2018-05-29T16:15:00.031Z,80.69
2018-05-29T16:17:29.435Z,82.58
2018-05-29T16:19:58.796Z,85.15
2018-05-29T16:22:28.153Z,86.75
2018-05-29T16:24:57.512Z,88.25
2018-05-29T16:27:26.877Z,85.20
2018-05-29T16:29:56.039Z,83.82
2018-05-29T16:32:25.388Z,85.61
2018-05-29T16:34:55.014Z,84.28
2018-05-29T16:37:24.163Z,85.49
2018-05-29T16:39:53.519Z,85.88
2018-05-29T16:42:22.915Z,87.81
2018-05-29T16:44:52.270Z,83.63
2018-05-29T16:47:21.618Z,82.80
2018-05-29T16:49:50.970Z,83.09
2018-05-29T16:52:20.328Z,82.63
2018-05-29T16:54:49.971Z,83.16
2018-05-29T16:57:19.351Z,83.55
2018-05-29T16:59:48.718Z,82.70
2018-05-29T17:02:18.079Z,82.61
2018-05-29T17:04:47.511Z,82.78
2018-05-29T17:07:17.109Z,83.71
2018-05-29T17:09:46.508Z,83.33
2018-05-29T17:12:15.875Z,82.59
2018-05-29T17:14:45.260Z,82.28
2018-05-29T17:17:14.620Z,82.46
2018-05-29T17:19:44.028Z,81.42
2018-05-29T17:22:13.391Z,81.08
2018-05-29T17:24:42.800Z,81.07
2018-05-29T17:27:12.169Z,81.05
2018-05-29T17:29:41.559Z,81.90
2018-05-29T17:32:10.954Z,81.84
2018-05-29T17:34:40.320Z,82.38
2018-05-29T17:37:09.688Z,82.12
2018-05-29T17:39:39.056Z,82.48
2018-05-29T17:42:08.410Z,82.03
2018-05-29T17:44:37.832Z,82.91
2018-05-29T17:47:07.220Z,82.79
2018-05-29T17:49:36.590Z,82.97
2018-05-29T17:52:05.615Z,83.02
2018-05-29T17:54:34.963Z,83.20
2018-05-29T17:57:04.346Z,83.93
2018-05-29T17:59:33.709Z,82.98
2018-05-29T18:02:03.071Z,82.32
2018-05-29T18:04:32.418Z,81.82
2018-05-29T18:07:01.777Z,81.85
2018-05-29T18:09:31.185Z,82.04
2018-05-29T18:12:00.561Z,82.10
2018-05-29T18:14:29.911Z,81.45
2018-05-29T18:16:59.280Z,82.01
2018-05-29T18:19:28.645Z,81.96
2018-05-29T18:21:58.046Z,82.21
2018-05-29T18:24:27.408Z,82.73
2018-05-29T18:26:56.758Z,83.46
2018-05-29T18:29:26.195Z,84.37
2018-05-29T18:31:56.984Z,84.20
2018-05-29T18:34:26.398Z,82.82
2018-05-29T18:36:55.750Z,81.12
2018-05-29T18:39:25.098Z,78.24
2018-05-29T18:41:54.739Z,76.58
2018-05-29T18:44:24.143Z,75.87
2018-05-29T18:46:54.060Z,75.33
2018-05-29T18:49:23.115Z,75.24
2018-05-29T18:51:52.488Z,75.09
2018-05-29T18:54:21.846Z,75.09
2018-05-29T18:56:51.211Z,74.55
2018-05-29T18:59:20.611Z,74.61
2018-05-29T19:01:49.993Z,74.15
2018-05-29T19:04:19.635Z,73.13
2018-05-29T19:06:48.975Z,72.63
2018-05-29T19:09:18.336Z,72.48
2018-05-29T19:11:47.771Z,71.63
2018-05-29T19:14:17.120Z,71.76
2018-05-29T19:16:45.919Z,71.35
2018-05-29T19:19:15.292Z,71.07
2018-05-29T19:21:44.654Z,69.90
2018-05-29T19:24:14.041Z,69.53
2018-05-29T19:26:43.387Z,70.21
2018-05-29T19:29:12.765Z,70.12
2018-05-29T19:31:42.115Z,69.82
2018-05-29T19:34:11.459Z,70.15
2018-05-29T19:36:40.885Z,70.19
2018-05-29T19:39:10.512Z,70.29
2018-05-29T19:41:39.873Z,70.04
2018-05-29T19:44:09.229Z,70.32
2018-05-29T19:46:38.588Z,70.65
2018-05-29T19:49:07.985Z,70.96
2018-05-29T19:51:37.335Z,70.91
2018-05-29T19:54:06.684Z,70.19
2018-05-29T19:56:36.024Z,69.78
2018-05-29T19:59:05.044Z,70.05
2018-05-29T20:01:34.500Z,69.96
2018-05-29T20:04:03.853Z,70.77
2018-05-29T20:06:33.234Z,71.17
2018-05-29T20:09:02.604Z,71.54
2018-05-29T20:11:31.978Z,71.63
2018-05-29T20:14:01.405Z,71.95
2018-05-29T20:16:30.764Z,72.33
2018-05-29T20:19:00.130Z,72.55
2018-05-29T20:21:29.527Z,72.74
2018-05-29T20:23:58.902Z,73.05
2018-05-29T20:26:28.358Z,73.08
2018-05-29T20:28:57.722Z,73.42
2018-05-29T20:31:27.438Z,73.80
2018-05-29T20:33:56.997Z,74.15
2018-05-29T20:36:26.365Z,74.79
2018-05-29T20:38:55.774Z,74.92
2018-05-29T20:41:25.128Z,75.35
2018-05-29T20:43:54.544Z,75.31
2018-05-29T20:46:24.369Z,75.58
2018-05-29T20:48:55.072Z,75.62
2018-05-29T20:51:24.480Z,75.55
2018-05-29T20:53:54.092Z,75.67
2018-05-29T20:56:23.448Z,75.36
2018-05-29T20:58:52.827Z,75.12
2018-05-29T21:01:22.184Z,74.75
2018-05-29T21:03:51.592Z,74.29
2018-05-29T21:06:20.976Z,74.43
2018-05-29T21:08:50.332Z,74.06
2018-05-29T21:11:19.719Z,74.18
2018-05-29T21:13:49.115Z,74.33
2018-05-29T21:16:18.540Z,74.48
2018-05-29T21:18:47.911Z,74.48
2018-05-29T21:21:17.271Z,74.70
2018-05-29T21:23:46.625Z,75.07
2018-05-29T21:26:16.004Z,75.30
2018-05-29T21:28:45.418Z,75.45
2018-05-29T21:31:15.108Z,75.67
2018-05-29T21:33:44.467Z,75.82
2018-05-29T21:36:13.918Z,75.98
2018-05-29T21:38:43.288Z,75.66
2018-05-29T21:41:12.734Z,75.84
2018-05-29T21:43:42.128Z,75.48
2018-05-29T21:46:11.486Z,75.53
2018-05-29T21:48:40.859Z,75.55
2018-05-29T21:51:10.214Z,75.16
2018-05-29T21:53:39.637Z,74.97
2018-05-29T21:56:09.215Z,75.04
2018-05-29T21:58:38.591Z,75.04
2018-05-29T22:01:08.233Z,74.96
2018-05-29T22:03:37.596Z,75.61
2018-05-29T22:06:07.011Z,75.43
2018-05-29T22:08:36.379Z,75.57
2018-05-29T22:11:05.730Z,75.58
2018-05-29T22:13:35.098Z,75.62
2018-05-29T22:16:04.620Z,75.42
2018-05-29T22:18:34.026Z,75.54
2018-05-29T22:21:03.436Z,75.26
2018-05-29T22:23:32.960Z,75.14
2018-05-29T22:26:02.373Z,75.03
2018-05-29T22:28:31.729Z,75.05
2018-05-29T22:31:01.094Z,74.92
2018-05-29T22:33:30.508Z,75.11
2018-05-29T22:35:59.855Z,75.13
2018-05-29T22:38:29.216Z,75.26
2018-05-29T22:40:58.611Z,75.55
2018-05-29T22:43:27.960Z,74.72
2018-05-29T22:45:57.320Z,74.90
2018-05-29T22:48:26.533Z,74.89
2018-05-29T22:50:56.196Z,74.97
2018-05-29T22:53:25.638Z,75.10
2018-05-29T22:55:55.191Z,74.92
2018-05-29T22:58:24.627Z,74.87
2018-05-29T23:00:54.003Z,74.88
2018-05-29T23:03:23.324Z,74.61
2018-05-29T23:05:52.952Z,74.57
2018-05-29T23:08:22.632Z,74.59
2018-05-29T23:10:52.263Z,74.82
2018-05-29T23:13:21.895Z,75.07
2018-05-29T23:15:51.524Z,74.92
2018-05-29T23:18:21.260Z,74.87
2018-05-29T23:20:51.121Z,74.95
2018-05-29T23:23:20.759Z,75.26
2018-05-29T23:25:50.860Z,75.47
2018-05-29T23:28:20.511Z,75.53
2018-05-29T23:30:50.200Z,75.88
2018-05-29T23:33:19.835Z,76.17
2018-05-29T23:35:50.173Z,76.40
2018-05-29T23:38:19.880Z,76.47
2018-05-29T23:40:49.521Z,76.92
2018-05-29T23:43:19.184Z,77.24
2018-05-29T23:45:48.819Z,77.37
2018-05-29T23:48:18.463Z,77.38
2018-05-29T23:50:48.145Z,77.74
2018-05-29T23:53:17.774Z,78.19
2018-05-29T23:55:47.398Z,78.68
2018-05-29T23:58:17.041Z,79.45
